Time;durP1;ratioP1;P1;durP2;ratioP2;P2;SDS_P1;SDS_P2;PMS_P1;PMS_P2;Temp;Humidity;BMP_temperature;BMP_pressure;BME280_temperature;BME280_humidity;BME280_pressure;Samples;Min_cycle;Max_cycle;Signal;HPM_P1;HPM_P2
2022/05/04 00:01:26;;;;;;;11.02;2.63;;;6.90;99.90;;;;;;5094073;28;20050;-44
2022/05/04 00:03:52;;;;;;;13.45;2.25;;;6.90;99.90;;;;;;5092615;28;20607;-46
2022/05/04 00:06:17;;;;;;;14.10;2.80;;;7.00;99.90;;;;;;5094710;28;20134;-43
2022/05/04 00:08:46;;;;;;;13.85;2.28;;;8.10;99.90;;;;;;5094438;28;20073;-42
2022/05/04 00:11:11;;;;;;;12.30;3.25;;;6.90;99.90;;;;;;5094604;28;20044;-43
2022/05/04 00:13:37;;;;;;;9.68;2.22;;;6.90;99.90;;;;;;5094427;28;20038;-42
2022/05/04 00:16:06;;;;;;;16.88;3.70;;;6.80;99.90;;;;;;5094105;28;20039;-44
2022/05/04 00:18:33;;;;;;;10.40;2.35;;;6.90;99.90;;;;;;5094058;28;20452;-44
2022/05/04 00:20:59;;;;;;;11.77;2.67;;;7.00;99.90;;;;;;5094138;28;20043;-50
2022/05/04 00:23:25;;;;;;;11.23;2.80;;;6.90;99.90;;;;;;5094989;28;20086;-42
2022/05/04 00:25:53;;;;;;;11.00;2.30;;;7.00;99.90;;;;;;5094158;28;20040;-44
2022/05/04 00:28:19;;;;;;;13.52;3.13;;;6.80;99.90;;;;;;5093734;28;20511;-42
2022/05/04 00:30:45;;;;;;;10.43;2.42;;;6.90;99.90;;;;;;5093965;28;20031;-43
2022/05/04 00:33:11;;;;;;;12.20;2.78;;;6.90;99.90;;;;;;5094598;28;20623;-44
2022/05/04 00:35:37;;;;;;;12.73;2.53;;;6.90;99.90;;;;;;5094743;28;20104;-43
2022/05/04 00:38:02;;;;;;;8.68;2.65;;;6.80;99.90;;;;;;5094563;28;20036;-49
2022/05/04 00:40:28;;;;;;;15.20;2.50;;;6.70;99.90;;;;;;5094250;28;20411;-45
2022/05/04 00:42:54;;;;;;;7.07;1.85;;;6.90;99.90;;;;;;5095005;28;20036;-43
2022/05/04 00:45:19;;;;;;;13.00;2.00;;;6.90;99.90;;;;;;5094343;28;20058;-44
2022/05/04 00:47:45;;;;;;;11.27;2.10;;;6.90;99.90;;;;;;5095514;28;20047;-43
2022/05/04 00:50:12;;;;;;;7.35;2.45;;;6.90;99.90;;;;;;5096743;28;20066;-47
2022/05/04 00:52:42;;;;;;;14.32;2.13;;;7.00;99.90;;;;;;5096584;28;20039;-43
2022/05/04 00:55:09;;;;;;;12.60;2.25;;;6.90;99.90;;;;;;5096626;28;20040;-44
2022/05/04 01:00:26;;;;;;;9.13;2.08;;;6.80;99.90;;;;;;5095004;28;20057;-43
2022/05/04 01:02:51;;;;;;;13.55;2.33;;;6.90;99.90;;;;;;5093598;28;20502;-46
2022/05/04 01:05:17;;;;;;;12.80;3.22;;;6.80;99.90;;;;;;5093222;28;20047;-45
2022/05/04 01:07:45;;;;;;;11.93;2.30;;;6.80;99.90;;;;;;5094189;28;20089;-44
2022/05/04 01:10:13;;;;;;;7.20;2.10;;;6.80;99.90;;;;;;5093089;28;20404;-45
2022/05/04 01:12:49;;;;;;;8.45;1.88;;;6.60;99.90;;;;;;5094086;28;20466;-42
2022/05/04 01:15:18;;;;;;;10.23;2.53;;;6.70;99.90;;;;;;5098236;28;20043;-43
2022/05/04 01:17:44;;;;;;;9.80;2.20;;;6.90;99.90;;;;;;5097955;28;20036;-43
2022/05/04 01:20:11;;;;;;;8.30;2.45;;;6.70;99.90;;;;;;5097944;28;20040;-43
2022/05/04 01:22:37;;;;;;;8.25;2.50;;;6.70;99.90;;;;;;5097609;28;20043;-46
2022/05/04 01:25:03;;;;;;;12.45;2.45;;;6.60;99.90;;;;;;5097585;28;20059;-43
2022/05/04 01:27:29;;;;;;;12.57;2.60;;;;;;;;;;5098193;28;20043;-43
2022/05/04 01:29:57;;;;;;;12.77;2.60;;;6.70;99.90;;;;;;5098308;28;20047;-47
2022/05/04 01:32:24;;;;;;;9.68;2.70;;;6.90;99.90;;;;;;5097546;28;20031;-44
2022/05/04 01:34:49;;;;;;;8.48;2.03;;;6.70;99.90;;;;;;5097238;28;20050;-44
2022/05/04 01:37:15;;;;;;;16.38;3.42;;;6.80;99.90;;;;;;5098855;28;20439;-44
2022/05/04 01:39:40;;;;;;;13.25;2.45;;;6.80;99.90;;;;;;5097329;28;20042;-46
2022/05/04 01:42:13;;;;;;;9.25;2.10;;;6.90;99.90;;;;;;5097272;28;20094;-45
2022/05/04 01:44:40;;;;;;;14.70;3.65;;;6.90;99.90;;;;;;5097278;28;20048;-44
2022/05/04 01:47:07;;;;;;;11.82;3.63;;;7.00;99.90;;;;;;5097130;28;20051;-45
2022/05/04 01:49:33;;;;;;;12.35;2.40;;;6.90;99.90;;;;;;5098305;28;20048;-46
2022/05/04 01:51:59;;;;;;;8.52;2.13;;;6.80;99.90;;;;;;5094377;28;20104;-45
2022/05/04 01:54:26;;;;;;;16.95;2.95;;;6.90;99.90;;;;;;5097508;28;20415;-47
2022/05/04 01:56:52;;;;;;;10.98;2.30;;;6.70;99.90;;;;;;5096805;28;20036;-43
2022/05/04 01:59:17;;;;;;;10.13;1.98;;;6.90;99.90;;;;;;5099274;28;20563;-48
2022/05/04 02:01:43;;;;;;;12.38;2.60;;;7.10;99.90;;;;;;5097138;28;20073;-44
2022/05/04 02:04:09;;;;;;;9.40;2.10;;;9.00;99.90;;;;;;5098141;28;20506;-42
2022/05/04 02:06:38;;;;;;;13.85;2.63;;;7.00;99.90;;;;;;5097324;28;20048;-45
2022/05/04 02:09:05;;;;;;;13.18;2.80;;;7.00;99.90;;;;;;5097819;28;20031;-47
2022/05/04 02:11:35;;;;;;;14.90;2.85;;;6.90;99.90;;;;;;5096923;28;20089;-44
2022/05/04 02:14:02;;;;;;;10.75;3.08;;;6.90;99.90;;;;;;5098479;28;20085;-43
2022/05/04 02:16:31;;;;;;;16.48;2.80;;;6.90;99.90;;;;;;5097038;28;20104;-44
2022/05/04 02:18:57;;;;;;;13.38;2.47;;;6.90;99.90;;;;;;5097575;28;20035;-44
2022/05/04 02:21:25;;;;;;;11.20;2.50;;;6.90;99.90;;;;;;5096956;28;20035;-43
2022/05/04 02:23:51;;;;;;;7.28;2.22;;;6.70;99.90;;;;;;5096379;28;20058;-43
2022/05/04 02:26:17;;;;;;;12.13;3.13;;;6.80;99.90;;;;;;5096165;28;20461;-42
2022/05/04 02:28:43;;;;;;;11.57;2.95;;;6.80;99.90;;;;;;5095554;28;20060;-43
2022/05/04 02:31:09;;;;;;;13.32;2.45;;;6.90;99.90;;;;;;5093826;28;20105;-44
2022/05/04 02:33:35;;;;;;;10.55;2.40;;;6.90;99.90;;;;;;5096118;27;20516;-42
2022/05/04 02:38:49;;;;;;;10.85;2.20;;;6.90;99.90;;;;;;5096027;28;20056;-43
2022/05/04 02:41:15;;;;;;;10.65;2.40;;;6.80;99.90;;;;;;5094701;28;20066;-43
2022/05/04 02:43:41;;;;;;;8.40;2.35;;;6.90;99.90;;;;;;5097173;28;20121;-44
2022/05/04 02:46:20;;;;;;;13.15;3.20;;;6.80;99.90;;;;;;5095819;28;20048;-42
2022/05/04 02:48:46;;;;;;;11.38;2.38;;;6.90;99.90;;;;;;5094945;28;20167;-43
2022/05/04 02:51:13;;;;;;;9.70;2.65;;;6.80;99.90;;;;;;5096961;28;20040;-43
2022/05/04 02:53:41;;;;;;;7.18;2.10;;;6.90;99.90;;;;;;5095943;28;20039;-42
2022/05/04 02:56:08;;;;;;;8.07;2.58;;;6.80;99.90;;;;;;5094826;28;20048;-44
2022/05/04 02:58:34;;;;;;;9.80;2.67;;;6.80;99.90;;;;;;5096119;27;20053;-45
2022/05/04 03:04:03;;;;;;;17.35;4.18;;;6.70;99.90;;;;;;5095979;28;20796;-44
2022/05/04 03:06:29;;;;;;;14.07;2.40;;;8.60;99.90;;;;;;5096747;28;20043;-45
2022/05/04 03:08:55;;;;;;;14.13;2.13;;;6.80;99.90;;;;;;5096134;28;20149;-45
2022/05/04 03:14:07;;;;;;;13.38;3.08;;;6.90;99.90;;;;;;5096620;28;20530;-44
2022/05/04 03:16:34;;;;;;;8.93;2.25;;;6.80;99.90;;;;;;5096266;28;20062;-44
2022/05/04 03:19:01;;;;;;;10.00;2.67;;;6.90;99.90;;;;;;5097261;28;20043;-42
2022/05/04 03:21:27;;;;;;;10.77;3.45;;;6.90;99.90;;;;;;5097525;28;20095;-42
2022/05/04 03:23:52;;;;;;;8.95;2.35;;;6.90;99.90;;;;;;5095196;28;20036;-46
2022/05/04 03:26:18;;;;;;;11.55;2.50;;;6.80;99.90;;;;;;5094990;28;20134;-43
2022/05/04 03:28:46;;;;;;;9.75;2.20;;;6.80;99.90;;;;;;5097061;28;20181;-43
2022/05/04 03:31:12;;;;;;;9.50;2.40;;;6.90;99.90;;;;;;5095530;28;20519;-46
2022/05/04 03:33:38;;;;;;;12.98;2.63;;;6.80;99.90;;;;;;5095969;28;20054;-47
2022/05/04 03:36:06;;;;;;;9.13;2.30;;;6.70;99.90;;;;;;5095198;28;20445;-48
2022/05/04 03:38:33;;;;;;;10.05;2.47;;;6.50;99.90;;;;;;5095906;28;20077;-47
2022/05/04 03:40:58;;;;;;;9.63;2.67;;;6.70;99.90;;;;;;5095447;28;20067;-44
2022/05/04 03:43:26;;;;;;;8.60;2.25;;;6.80;99.90;;;;;;5095861;28;20121;-47
2022/05/04 03:45:53;;;;;;;13.32;3.65;;;6.80;99.90;;;;;;5095918;28;20522;-48
2022/05/04 03:48:19;;;;;;;12.13;2.25;;;6.60;99.90;;;;;;5095842;28;20051;-44
2022/05/04 03:50:46;;;;;;;8.40;2.15;;;6.70;99.90;;;;;;5096678;28;20403;-46
2022/05/04 03:53:15;;;;;;;8.93;2.38;;;6.60;99.90;;;;;;5095446;28;20681;-46
2022/05/04 03:55:41;;;;;;;17.40;2.40;;;6.60;99.90;;;;;;5093776;28;20058;-45
2022/05/04 03:58:08;;;;;;;7.90;2.22;;;6.70;99.90;;;;;;5093510;28;20043;-44
2022/05/04 04:00:35;;;;;;;12.52;3.25;;;6.70;99.90;;;;;;5093864;28;20036;-44
2022/05/04 04:03:01;;;;;;;12.13;2.30;;;6.60;99.90;;;;;;5092047;28;20027;-44
2022/05/04 04:05:28;;;;;;;14.55;4.38;;;6.70;99.90;;;;;;5092847;28;20043;-43
2022/05/04 04:07:54;;;;;;;17.13;2.92;;;7.40;99.90;;;;;;5093493;28;20120;-46
2022/05/04 04:10:19;;;;;;;9.93;3.35;;;6.70;99.90;;;;;;5092776;28;20495;-43
2022/05/04 04:12:45;;;;;;;12.70;3.00;;;6.70;99.90;;;;;;5093871;28;20048;-47
2022/05/04 04:15:11;;;;;;;11.68;2.60;;;6.60;99.90;;;;;;5093840;28;20050;-45
2022/05/04 04:17:37;;;;;;;14.45;2.83;;;6.70;99.90;;;;;;5093933;28;20027;-47
2022/05/04 04:22:47;;;;;;;13.65;2.60;;;6.50;99.90;;;;;;5094043;28;20916;-48
2022/05/04 04:25:13;;;;;;;11.50;2.70;;;6.60;99.90;;;;;;5092201;28;20043;-45
2022/05/04 04:27:38;;;;;;;11.40;3.00;;;6.60;99.90;;;;;;5093514;28;20043;-44
2022/05/04 04:30:06;;;;;;;11.32;2.22;;;6.70;99.90;;;;;;5093139;28;20040;-44
2022/05/04 04:32:32;;;;;;;11.40;2.30;;;6.80;99.90;;;;;;5094007;28;20074;-43
2022/05/04 04:34:58;;;;;;;16.10;2.53;;;6.80;99.90;;;;;;5092303;28;20198;-43
2022/05/04 04:37:24;;;;;;;14.02;3.58;;;6.70;99.90;;;;;;5093141;28;20101;-45
2022/05/04 04:39:51;;;;;;;12.60;2.45;;;6.80;99.90;;;;;;5094196;28;20046;-43
2022/05/04 04:42:17;;;;;;;15.68;2.53;;;6.90;99.90;;;;;;5093961;28;20109;-44
2022/05/04 04:44:42;;;;;;;11.30;3.00;;;6.90;99.90;;;;;;5092108;28;20434;-43
2022/05/04 04:47:08;;;;;;;8.38;2.17;;;7.00;99.90;;;;;;5091519;28;20538;-43
2022/05/04 04:49:33;;;;;;;8.57;2.10;;;6.90;99.90;;;;;;5093008;28;20294;-44
2022/05/04 04:51:59;;;;;;;10.57;2.50;;;7.20;99.90;;;;;;5091783;28;20696;-42
2022/05/04 04:54:27;;;;;;;10.20;2.30;;;7.10;99.90;;;;;;5092106;28;20043;-43
2022/05/04 04:56:52;;;;;;;11.85;2.63;;;7.90;99.90;;;;;;5093037;28;20522;-42
2022/05/04 04:59:18;;;;;;;6.28;2.20;;;7.10;99.90;;;;;;5092217;28;20043;-42
2022/05/04 05:01:47;;;;;;;13.10;2.55;;;7.10;99.90;;;;;;5091909;28;20036;-43
2022/05/04 05:04:13;;;;;;;12.80;1.73;;;7.20;99.90;;;;;;5092185;28;20044;-43
2022/05/04 05:06:38;;;;;;;7.70;1.90;;;7.50;99.90;;;;;;5092138;28;20045;-43
2022/05/04 05:09:04;;;;;;;15.05;3.53;;;7.10;99.90;;;;;;5093113;28;20093;-43
2022/05/04 05:11:30;;;;;;;16.30;3.33;;;7.20;99.90;;;;;;5093532;28;20066;-46
2022/05/04 05:16:40;;;;;;;10.73;2.03;;;7.30;99.90;;;;;;5090994;28;20054;-43
2022/05/04 05:19:05;;;;;;;7.30;2.00;;;7.30;99.90;;;;;;5092037;28;20044;-43
2022/05/04 05:21:31;;;;;;;9.55;2.38;;;7.40;99.90;;;;;;5092415;28;20036;-43
2022/05/04 05:23:57;;;;;;;8.15;2.13;;;7.40;99.90;;;;;;5090999;28;20047;-42
2022/05/04 05:26:22;;;;;;;12.73;2.72;;;7.50;99.90;;;;;;5093876;28;20047;-43
2022/05/04 05:28:48;;;;;;;12.52;2.42;;;7.60;99.90;;;;;;5092837;28;20652;-44
2022/05/04 05:31:14;;;;;;;11.15;1.80;;;7.50;99.90;;;;;;5091518;28;20043;-42
2022/05/04 05:33:40;;;;;;;11.07;1.90;;;7.50;99.90;;;;;;5089400;28;20663;-42
2022/05/04 05:36:07;;;;;;;10.70;2.08;;;7.60;99.90;;;;;;5092436;28;20149;-42
2022/05/04 05:38:32;;;;;;;10.98;2.17;;;7.50;99.90;;;;;;5090843;28;20121;-46
2022/05/04 05:40:59;;;;;;;9.32;1.90;;;7.50;99.90;;;;;;5092389;28;20118;-44
2022/05/04 05:43:28;;;;;;;13.23;2.28;;;7.70;99.90;;;;;;5090251;28;20306;-46
2022/05/04 05:45:54;;;;;;;11.07;2.03;;;8.00;99.90;;;;;;5092076;28;20048;-44
2022/05/04 05:48:20;;;;;;;9.55;2.22;;;9.10;99.90;;;;;;5090828;28;20093;-44
2022/05/04 05:50:48;;;;;;;8.10;1.70;;;7.80;99.90;;;;;;5092216;28;20119;-45
2022/05/04 05:53:17;;;;;;;10.35;2.63;;;8.00;99.90;;;;;;5092640;28;20044;-45
2022/05/04 05:55:43;;;;;;;8.18;1.90;;;7.90;99.90;;;;;;5091430;28;20035;-45
2022/05/04 05:58:10;;;;;;;7.97;1.80;;;7.90;99.90;;;;;;5093067;28;20073;-44
2022/05/04 06:00:36;;;;;;;10.38;2.03;;;7.80;99.90;;;;;;5095067;28;20071;-43
2022/05/04 06:03:02;;;;;;;10.43;1.80;;;8.00;99.90;;;;;;5095179;28;20116;-44
2022/05/04 06:05:28;;;;;;;9.75;1.90;;;7.90;99.90;;;;;;5095705;28;20296;-43
2022/05/04 06:07:53;;;;;;;13.20;1.80;;;8.10;99.90;;;;;;5095853;28;20031;-43
2022/05/04 06:10:19;;;;;;;9.50;1.70;;;8.10;99.90;;;;;;5095889;28;20230;-44
2022/05/04 06:12:47;;;;;;;7.53;1.80;;;8.90;99.90;;;;;;5095943;28;20035;-44
2022/05/04 06:15:14;;;;;;;12.98;2.08;;;9.10;99.90;;;;;;5094420;28;20290;-47
2022/05/04 06:17:42;;;;;;;11.93;2.03;;;8.80;99.90;;;;;;5097094;28;20876;-46
2022/05/04 06:20:07;;;;;;;6.63;1.65;;;9.20;99.90;;;;;;5096156;28;20043;-49
2022/05/04 06:22:33;;;;;;;11.57;1.98;;;8.30;99.90;;;;;;5096430;28;20054;-45
2022/05/04 06:24:59;;;;;;;10.50;2.45;;;9.00;99.90;;;;;;5094143;28;20046;-49
2022/05/04 06:27:28;;;;;;;7.43;1.98;;;10.00;99.90;;;;;;5096416;28;20051;-45
2022/05/04 06:35:25;;;;;;;7.13;1.55;;;9.90;99.90;;;;;;5095007;28;20055;-44
2022/05/04 06:37:50;;;;;;;7.05;1.73;;;10.40;99.90;;;;;;5095178;28;20035;-44
2022/05/04 06:40:16;;;;;;;9.05;1.85;;;8.60;99.90;;;;;;5092848;28;20043;-48
2022/05/04 06:42:42;;;;;;;12.52;1.88;;;8.70;99.90;;;;;;5094321;28;20035;-49
2022/05/04 06:45:08;;;;;;;8.27;1.90;;;9.30;99.90;;;;;;5094138;28;20516;-45
2022/05/04 06:47:34;;;;;;;10.43;2.25;;;8.60;99.90;;;;;;5093236;28;20044;-46
2022/05/04 06:50:00;;;;;;;10.45;1.70;;;8.90;99.90;;;;;;5094645;28;20055;-48
2022/05/04 06:52:26;;;;;;;9.25;1.67;;;8.60;99.90;;;;;;5095257;28;20146;-48
2022/05/04 06:54:52;;;;;;;11.02;1.80;;;8.80;99.90;;;;;;5094535;28;20082;-47
2022/05/04 06:57:17;;;;;;;12.52;1.90;;;8.90;99.90;;;;;;5093975;28;20455;-48
2022/05/04 06:59:43;;;;;;;12.30;1.95;;;9.20;99.90;;;;;;5093574;28;20510;-48
2022/05/04 07:02:09;;;;;;;10.38;1.98;;;9.40;99.90;;;;;;5094224;28;20054;-48
2022/05/04 07:04:34;;;;;;;10.27;1.90;;;9.10;99.90;;;;;;5093231;28;20853;-47
2022/05/04 07:07:00;;;;;;;7.38;1.40;;;9.10;99.90;;;;;;5093468;27;20044;-49
2022/05/04 07:09:26;;;;;;;10.90;1.80;;;11.30;99.90;;;;;;5093131;28;20040;-48
2022/05/04 07:11:52;;;;;;;10.40;2.08;;;9.30;99.90;;;;;;5093709;28;20041;-46
2022/05/04 07:14:18;;;;;;;9.13;1.77;;;10.40;99.90;;;;;;5094577;28;20776;-48
2022/05/04 07:16:43;;;;;;;9.05;1.55;;;10.00;99.90;;;;;;5095421;28;20043;-48
2022/05/04 07:19:09;;;;;;;8.90;2.05;;;10.30;99.90;;;;;;5093774;28;20531;-45
2022/05/04 07:21:35;;;;;;;8.57;1.90;;;10.70;99.90;;;;;;5096517;28;20047;-47
2022/05/04 07:24:00;;;;;;;10.65;2.25;;;9.70;99.90;;;;;;5095452;28;20504;-47
2022/05/04 07:26:28;;;;;;;15.48;2.38;;;9.90;99.90;;;;;;5094726;28;20506;-49
2022/05/04 07:28:53;;;;;;;8.13;1.77;;;9.80;99.90;;;;;;5094440;28;20972;-46
2022/05/04 07:31:19;;;;;;;12.63;2.10;;;10.60;99.90;;;;;;5095744;28;20411;-47
2022/05/04 07:33:48;;;;;;;10.02;1.90;;;10.00;99.90;;;;;;5094578;28;20031;-49
2022/05/04 07:36:14;;;;;;;6.47;1.80;;;10.10;99.90;;;;;;5093104;28;20044;-49
2022/05/04 07:38:39;;;;;;;10.85;2.38;;;10.00;99.90;;;;;;5093338;28;20032;-45
2022/05/04 07:43:49;;;;;;;9.60;2.13;;;9.90;99.90;;;;;;5092331;28;20036;-45
2022/05/04 07:46:15;;;;;;;9.35;1.70;;;10.00;99.90;;;;;;5093341;28;20086;-43
2022/05/04 07:48:41;;;;;;;11.93;2.10;;;11.20;99.90;;;;;;5094681;28;20351;-43
2022/05/04 07:51:06;;;;;;;13.65;2.20;;;10.80;99.90;;;;;;5093464;28;20118;-43
2022/05/04 07:53:32;;;;;;;10.13;1.92;;;11.00;99.90;;;;;;5094794;28;20069;-44
2022/05/04 07:56:00;;;;;;;6.97;1.67;;;8.20;99.90;;;;;;5092269;28;20391;-43
2022/05/04 07:58:26;;;;;;;9.90;1.55;;;10.80;99.90;;;;;;5092727;28;20078;-44
2022/05/04 08:06:22;;;;;;;13.68;2.20;;;10.30;99.90;;;;;;5093898;28;20051;-45
2022/05/04 08:08:48;;;;;;;9.55;1.65;;;11.50;99.90;;;;;;5092630;28;20071;-45
2022/05/04 08:11:13;;;;;;;12.60;2.45;;;12.30;99.90;;;;;;5092738;28;20067;-43
2022/05/04 08:13:41;;;;;;;6.88;1.45;;;11.20;99.90;;;;;;5094652;28;20039;-45
2022/05/04 08:16:10;;;;;;;7.45;1.88;;;10.30;99.90;;;;;;5094594;28;20385;-46
2022/05/04 08:18:39;;;;;;;10.25;2.40;;;10.30;99.90;;;;;;5093905;28;20104;-45
2022/05/04 08:21:05;;;;;;;10.50;2.30;;;10.30;99.90;;;;;;5094270;28;20031;-45
2022/05/04 08:23:31;;;;;;;6.95;1.48;;;10.30;99.90;;;;;;5094013;28;20032;-47
2022/05/04 08:25:56;;;;;;;27.38;2.20;;;10.40;99.90;;;;;;5093124;28;20795;-45
2022/05/04 08:28:23;;;;;;;9.02;1.80;;;10.30;99.90;;;;;;5091961;28;20676;-47
2022/05/04 08:30:49;;;;;;;6.03;1.75;;;10.60;99.90;;;;;;5092469;28;20054;-44
2022/05/04 08:33:15;;;;;;;7.93;2.00;;;12.00;99.90;;;;;;5094411;28;20047;-47
2022/05/04 08:35:41;;;;;;;7.32;1.42;;;10.70;99.90;;;;;;5093342;28;20050;-48
2022/05/04 08:38:07;;;;;;;5.80;1.52;;;10.70;99.90;;;;;;5092387;28;20062;-44
2022/05/04 08:40:33;;;;;;;10.00;1.75;;;10.80;99.90;;;;;;5095232;28;20040;-49
2022/05/04 08:43:05;;;;;;;7.55;1.98;;;11.50;99.90;;;;;;5091771;28;20531;-49
2022/05/04 08:45:35;;;;;;;12.90;1.80;;;12.10;99.90;;;;;;5092911;28;20040;-46
2022/05/04 08:48:03;;;;;;;6.72;1.70;;;11.10;99.90;;;;;;5094756;28;20053;-44
2022/05/04 08:50:29;;;;;;;14.70;2.40;;;11.30;99.90;;;;;;5092279;28;20070;-44
2022/05/04 08:52:55;;;;;;;8.65;1.80;;;11.40;99.90;;;;;;5094980;28;20098;-49
2022/05/04 08:55:23;;;;;;;11.27;2.38;;;11.40;99.90;;;;;;5093442;28;20047;-46
2022/05/04 08:57:50;;;;;;;9.13;1.92;;;11.40;99.90;;;;;;5093313;28;20124;-48
2022/05/04 09:00:17;;;;;;;7.43;1.77;;;12.10;99.90;;;;;;5092091;28;20702;-46
2022/05/04 09:02:45;;;;;;;7.88;1.58;;;11.20;99.90;;;;;;5091712;28;20043;-45
2022/05/04 09:05:19;;;;;;;8.60;2.03;;;11.40;99.90;;;;;;5091501;28;20075;-48
2022/05/04 09:07:48;;;;;;;10.18;2.08;;;11.20;99.90;;;;;;5091246;28;20036;-45
2022/05/04 09:10:27;;;;;;;9.23;1.83;;;12.80;99.90;;;;;;5091636;28;20039;-46
2022/05/04 09:12:55;;;;;;;10.02;1.80;;;11.60;99.90;;;;;;5092846;28;20441;-48
2022/05/04 09:15:27;;;;;;;10.20;2.08;;;11.60;99.90;;;;;;5091399;28;20048;-43
2022/05/04 09:17:59;;;;;;;9.43;2.13;;;11.70;99.90;;;;;;5092928;28;20043;-49
2022/05/04 09:20:47;;;;;;;9.43;1.80;;;12.00;99.90;;;;;;5093320;28;20048;-48
2022/05/04 09:23:28;;;;;;;7.78;2.25;;;12.20;99.90;;;;;;5088906;28;20610;-44
2022/05/04 09:26:07;;;;;;;6.32;1.40;;;12.10;99.90;;;;;;5091326;28;20048;-51
2022/05/04 09:28:34;;;;;;;9.02;1.88;;;12.40;99.90;;;;;;5091476;28;20043;-46
2022/05/04 09:31:05;;;;;;;4.97;1.48;;;14.20;99.90;;;;;;5092873;28;20035;-44
2022/05/04 09:33:34;;;;;;;9.07;1.50;;;13.30;99.90;;;;;;5091885;28;20403;-47
2022/05/04 09:36:02;;;;;;;8.45;1.70;;;12.60;99.90;;;;;;5094834;28;20557;-44
2022/05/04 09:46:51;;;;;;;8.48;2.70;;;13.40;99.90;;;;;;5097470;28;20483;-45
2022/05/04 09:49:36;;;;;;;10.50;1.33;;;14.60;99.90;;;;;;5095644;28;20047;-45
2022/05/04 09:52:04;;;;;;;7.00;1.70;;;14.50;99.90;;;;;;5093943;27;20134;-47
2022/05/04 09:54:30;;;;;;;6.80;1.90;;;13.50;99.90;;;;;;5097527;28;20399;-46
2022/05/04 09:57:01;;;;;;;8.38;2.00;;;14.80;99.90;;;;;;5095880;28;20039;-46
2022/05/04 09:59:31;;;;;;;6.93;1.67;;;13.10;99.90;;;;;;5097168;28;20051;-44
2022/05/04 10:02:07;;;;;;;10.20;1.90;;;13.10;99.90;;;;;;5094550;28;20128;-45
2022/05/04 10:04:34;;;;;;;8.48;1.60;;;14.00;99.90;;;;;;5094871;28;20143;-44
2022/05/04 10:07:01;;;;;;;10.43;1.88;;;13.60;99.90;;;;;;5096953;28;20048;-45
2022/05/04 10:09:27;;;;;;;13.10;2.53;;;15.70;99.90;;;;;;5096948;28;20077;-44
2022/05/04 10:11:58;;;;;;;12.95;2.47;;;14.90;99.90;;;;;;5096784;28;20361;-47
2022/05/04 10:14:28;;;;;;;5.13;1.70;;;16.60;99.90;;;;;;5096871;28;20042;-45
2022/05/04 10:17:18;;;;;;;8.30;1.85;;;16.90;99.90;;;;;;5095129;28;20040;-47
2022/05/04 10:19:46;;;;;;;10.70;1.88;;;15.90;99.90;;;;;;5096115;28;20717;-44
2022/05/04 10:22:16;;;;;;;8.95;1.92;;;16.10;99.90;;;;;;5095032;28;20427;-44
2022/05/04 10:24:44;;;;;;;8.38;1.88;;;15.90;99.90;;;;;;5095380;28;20327;-45
2022/05/04 10:27:21;;;;;;;6.10;1.80;;;17.80;99.90;;;;;;5094427;28;20092;-46
2022/05/04 10:32:44;;;;;;;7.75;2.20;;;14.80;99.90;;;;;;5094458;28;20057;-46
2022/05/04 10:35:20;;;;;;;7.32;2.10;;;15.80;99.90;;;;;;5093970;28;20042;-44
2022/05/04 10:37:51;;;;;;;9.65;2.03;;;14.10;99.90;;;;;;5094666;28;20043;-44
2022/05/04 10:40:46;;;;;;;12.73;2.70;;;14.10;99.90;;;;;;5094638;28;20127;-44
2022/05/04 10:43:14;;;;;;;8.75;2.20;;;14.40;99.90;;;;;;5031168;28;20171;-44
2022/05/04 10:45:42;;;;;;;9.30;2.40;;;15.20;99.90;;;;;;5029809;28;20067;-45
2022/05/04 10:48:27;;;;;;;9.77;2.03;;;16.30;99.90;;;;;;5031510;28;20060;-44
2022/05/04 10:50:55;;;;;;;5.90;2.05;;;14.80;99.90;;;;;;5032315;28;20044;-44
2022/05/04 10:53:23;;;;;;;7.82;1.90;;;16.40;99.90;;;;;;5032549;28;20051;-43
2022/05/04 10:56:02;;;;;;;8.10;1.98;;;14.40;99.90;;;;;;5030812;28;20140;-44
2022/05/04 10:58:51;;;;;;;9.02;2.05;;;14.10;99.90;;;;;;5030333;28;20041;-43
2022/05/04 11:01:18;;;;;;;7.63;2.08;;;14.00;99.90;;;;;;5031836;28;20505;-44
2022/05/04 11:03:54;;;;;;;13.20;2.20;;;14.30;99.90;;;;;;5031574;28;20043;-47
2022/05/04 11:06:50;;;;;;;7.18;2.05;;;14.30;99.90;;;;;;5031581;28;20873;-48
2022/05/04 11:09:39;;;;;;;10.18;1.83;;;15.10;99.90;;;;;;4971617;28;20062;-46
2022/05/04 11:12:07;;;;;;;8.07;1.90;;;15.20;99.90;;;;;;4972729;28;20785;-46
2022/05/04 11:14:34;;;;;;;7.00;2.30;;;15.50;99.90;;;;;;4972467;28;20046;-48
2022/05/04 11:17:01;;;;;;;8.52;1.80;;;15.80;99.90;;;;;;4973623;28;20042;-47
2022/05/04 11:19:30;;;;;;;7.40;2.50;;;15.80;99.90;;;;;;4987523;28;20056;-50
2022/05/04 11:21:56;;;;;;;11.73;2.35;;;16.00;99.90;;;;;;5051159;28;20055;-49
2022/05/04 11:24:25;;;;;;;6.70;1.92;;;16.10;99.90;;;;;;5051990;28;20036;-48
2022/05/04 11:26:52;;;;;;;8.82;2.15;;;16.30;99.90;;;;;;5050720;28;20049;-47
2022/05/04 11:29:22;;;;;;;10.48;2.33;;;16.30;99.90;;;;;;5050397;28;20627;-43
2022/05/04 11:32:01;;;;;;;8.57;2.53;;;16.40;99.90;;;;;;5050625;28;20060;-45
2022/05/04 11:34:37;;;;;;;7.60;1.80;;;16.30;99.90;;;;;;5051248;28;20162;-43
2022/05/04 11:37:11;;;;;;;9.27;2.00;;;17.90;99.90;;;;;;5052277;28;20137;-43
2022/05/04 11:39:39;;;;;;;8.27;2.17;;;16.00;99.90;;;;;;5036752;28;20055;-43
2022/05/04 11:42:10;;;;;;;8.85;2.30;;;16.20;99.90;;;;;;5049779;28;20432;-44
2022/05/04 11:44:39;;;;;;;19.98;8.52;;;16.00;99.90;;;;;;5050320;28;20109;-44
2022/05/04 11:47:06;;;;;;;7.28;1.90;;;17.70;99.90;;;;;;5087317;28;20773;-44
2022/05/04 11:49:35;;;;;;;8.48;2.60;;;15.80;99.90;;;;;;5093888;28;20078;-48
2022/05/04 11:52:02;;;;;;;10.68;2.40;;;15.80;99.90;;;;;;5092131;28;20044;-43
2022/05/04 11:54:28;;;;;;;7.55;2.17;;;16.10;99.90;;;;;;5093844;28;20572;-44
2022/05/04 11:56:54;;;;;;;13.38;4.97;;;16.30;99.90;;;;;;5094154;28;20043;-47
2022/05/04 11:59:20;;;;;;;46.47;37.67;;;16.30;99.90;;;;;;5094721;28;20506;-48
2022/05/04 12:01:46;;;;;;;16.38;6.28;;;16.10;99.90;;;;;;5093638;28;20044;-44
2022/05/04 12:04:13;;;;;;;9.07;2.55;;;16.40;99.90;;;;;;5091478;28;20072;-47
2022/05/04 12:06:42;;;;;;;40.60;31.80;;;16.80;99.90;;;;;;5093197;28;20032;-45
2022/05/04 12:09:12;;;;;;;14.23;7.03;;;16.00;99.90;;;;;;5093207;28;20047;-44
2022/05/04 12:11:38;;;;;;;9.90;2.38;;;17.00;99.90;;;;;;5092231;28;20028;-43
2022/05/04 12:14:03;;;;;;;12.25;6.28;;;15.90;99.90;;;;;;5093075;28;20632;-43
2022/05/04 12:16:31;;;;;;;7.90;2.05;;;16.20;99.90;;;;;;5091961;28;20036;-44
2022/05/04 12:18:58;;;;;;;7.22;2.85;;;16.30;99.90;;;;;;5093545;28;20039;-43
2022/05/04 12:21:24;;;;;;;19.83;6.90;;;16.30;99.90;;;;;;5092497;28;20043;-43
2022/05/04 12:23:54;;;;;;;289.23;149.70;;;18.50;99.90;;;;;;5093184;28;20037;-43
2022/05/04 12:26:21;;;;;;;34.08;19.90;;;16.30;99.90;;;;;;5093099;28;20047;-45
2022/05/04 12:34:23;;;;;;;688.65;474.75;;;15.70;99.90;;;;;;5093087;28;20066;-44
2022/05/04 12:36:50;;;;;;;606.47;546.40;;;15.90;99.90;;;;;;5093061;28;20035;-45
2022/05/04 12:39:16;;;;;;;620.78;570.15;;;15.80;99.90;;;;;;5094410;28;20096;-42
2022/05/04 12:41:44;;;;;;;100.25;64.82;;;17.80;99.90;;;;;;5093536;27;20031;-44
2022/05/04 12:44:10;;;;;;;14.07;10.10;;;15.60;99.90;;;;;;5092376;28;20112;-43
2022/05/04 12:46:37;;;;;;;23.10;11.35;;;15.80;99.90;;;;;;5092050;28;20476;-43
2022/05/04 12:49:03;;;;;;;10.27;6.85;;;17.70;99.90;;;;;;5092515;28;20119;-46
2022/05/04 12:51:29;;;;;;;26.80;11.05;;;17.70;99.90;;;;;;5092424;28;20039;-43
2022/05/04 12:53:56;;;;;;;14.00;5.70;;;16.20;99.90;;;;;;5095312;28;20043;-45
2022/05/04 12:59:06;;;;;;;5.80;2.00;;;17.20;99.90;;;;;;5094275;28;20090;-49
2022/05/04 13:01:32;;;;;;;44.88;16.27;;;16.30;99.90;;;;;;5092582;28;20122;-43
2022/05/04 13:03:59;;;;;;;255.80;228.50;;;16.80;99.90;;;;;;5086653;28;20075;-47
2022/05/04 13:06:27;;;;;;;37.67;16.05;;;16.30;99.90;;;;;;5092861;28;20075;-45
2022/05/04 13:08:53;;;;;;;313.23;189.05;;;16.10;99.90;;;;;;5092542;28;20101;-46
2022/05/04 13:11:20;;;;;;;70.80;51.13;;;17.90;99.90;;;;;;5092402;28;20488;-45
2022/05/04 13:13:46;;;;;;;142.63;93.10;;;16.80;99.90;;;;;;5091408;28;20047;-45
2022/05/04 13:16:12;;;;;;;22.50;17.02;;;15.70;99.90;;;;;;5092473;28;20040;-44
2022/05/04 13:18:39;;;;;;;14.65;10.80;;;15.00;99.90;;;;;;5092841;28;20046;-45
2022/05/04 13:21:07;;;;;;;7.18;2.58;;;15.20;99.90;;;;;;5091202;28;20093;-45
2022/05/04 13:23:33;;;;;;;11.82;2.72;;;17.40;99.90;;;;;;5092661;28;20127;-45
2022/05/04 13:25:59;;;;;;;12.95;2.38;;;15.00;99.90;;;;;;5090385;28;20039;-52
2022/05/04 13:28:26;;;;;;;9.38;6.25;;;15.10;99.90;;;;;;5091348;28;20039;-45
2022/05/04 13:30:52;;;;;;;131.88;63.88;;;16.80;99.90;;;;;;5090665;28;20078;-45
2022/05/04 13:33:18;;;;;;;13.93;12.20;;;15.40;99.90;;;;;;5092271;28;20084;-43
2022/05/04 13:35:45;;;;;;;22.08;10.13;;;16.80;99.90;;;;;;5091458;28;20081;-43
2022/05/04 13:38:11;;;;;;;10.70;3.38;;;15.30;99.90;;;;;;5091602;28;20108;-46